createdAt,value
2022-08-03T00:00:15.116Z,82.46
2022-08-03T00:02:47.585Z,82.67
2022-08-03T00:05:20.139Z,82.71
2022-08-03T00:07:52.531Z,83.15
2022-08-03T00:10:26.250Z,82.85
2022-08-03T00:12:58.684Z,83.00
2022-08-03T00:15:31.131Z,83.36
2022-08-03T00:18:03.609Z,83.02
2022-08-03T00:20:36.430Z,82.97
2022-08-03T00:23:08.795Z,83.25
2022-08-03T00:25:42.307Z,83.34
2022-08-03T00:28:14.715Z,82.57
2022-08-03T00:30:47.904Z,82.92
2022-08-03T00:33:20.638Z,83.17
2022-08-03T00:35:54.417Z,83.19
2022-08-03T00:38:26.830Z,83.51
2022-08-03T00:40:59.923Z,84.06
2022-08-03T00:43:32.363Z,83.25
2022-08-03T00:46:04.811Z,83.68
2022-08-03T00:48:37.439Z,83.47
2022-08-03T00:51:10.040Z,84.16
2022-08-03T00:53:43.219Z,83.96
2022-08-03T00:56:17.631Z,83.74
2022-08-03T00:58:51.392Z,83.69
2022-08-03T01:01:23.812Z,83.79
2022-08-03T01:03:56.244Z,83.73
2022-08-03T01:06:36.528Z,83.85
2022-08-03T01:09:18.032Z,84.40
2022-08-03T01:12:01.707Z,84.64
2022-08-03T01:14:39.124Z,84.45
2022-08-03T01:17:16.649Z,84.47
2022-08-03T01:19:56.054Z,84.01
2022-08-03T01:23:00.406Z,84.11
2022-08-03T01:25:47.960Z,84.36
2022-08-03T01:28:48.039Z,84.80
2022-08-03T01:31:27.030Z,85.23
2022-08-03T01:34:03.218Z,85.76
2022-08-03T01:36:40.244Z,85.39
2022-08-03T01:39:13.384Z,85.26
2022-08-03T01:41:49.311Z,85.69
2022-08-03T01:44:27.593Z,85.68
2022-08-03T01:47:05.703Z,84.90
2022-08-03T01:49:43.024Z,85.35
2022-08-03T01:52:19.598Z,85.30
2022-08-03T01:54:53.531Z,85.11
2022-08-03T01:57:28.992Z,85.44
2022-08-03T02:00:01.513Z,85.30
2022-08-03T02:02:46.967Z,85.24
2022-08-03T02:05:20.639Z,85.63
2022-08-03T02:07:55.025Z,85.11
2022-08-03T02:10:35.403Z,85.30
2022-08-03T02:13:09.391Z,85.24
2022-08-03T02:15:44.135Z,85.29
2022-08-03T02:18:19.638Z,85.35
2022-08-03T02:20:52.322Z,85.95
2022-08-03T02:23:24.773Z,85.94
2022-08-03T02:26:00.566Z,85.91
2022-08-03T02:28:37.118Z,85.89
2022-08-03T02:31:15.187Z,86.27
2022-08-03T02:33:51.263Z,86.22
2022-08-03T02:36:26.670Z,86.29
2022-08-03T02:39:02.234Z,86.36
2022-08-03T02:41:37.995Z,86.41
2022-08-03T02:44:13.429Z,86.35
2022-08-03T02:46:49.191Z,86.36
2022-08-03T02:49:42.608Z,86.63
2022-08-03T02:52:18.395Z,86.44
2022-08-03T02:54:54.800Z,86.54
2022-08-03T02:57:29.458Z,86.28
2022-08-03T03:00:02.163Z,86.09
2022-08-03T03:02:36.998Z,86.48
2022-08-03T03:05:52.728Z,86.61
2022-08-03T03:08:04.782Z,87.02
2022-08-03T03:10:53.324Z,87.41
2022-08-03T03:13:30.058Z,87.31
2022-08-03T03:16:05.751Z,87.49
2022-08-03T03:18:38.970Z,86.86
2022-08-03T03:21:14.162Z,86.94
2022-08-03T03:23:47.011Z,86.56
2022-08-03T03:26:19.472Z,87.13
2022-08-03T03:28:52.228Z,87.23
2022-08-03T03:31:24.719Z,87.75
2022-08-03T03:33:58.106Z,87.80
2022-08-03T03:36:31.327Z,88.73
2022-08-03T03:39:15.191Z,88.77
2022-08-03T03:41:48.830Z,88.65
2022-08-03T03:44:21.512Z,88.69
2022-08-03T03:46:54.311Z,89.03
2022-08-03T03:49:27.276Z,89.24
2022-08-03T03:52:00.449Z,89.26
2022-08-03T03:54:40.146Z,89.20
2022-08-03T03:57:12.903Z,89.17
2022-08-03T03:59:45.555Z,89.63
2022-08-03T04:02:18.295Z,89.65
2022-08-03T04:05:08.873Z,90.06
2022-08-03T04:08:16.228Z,90.48
2022-08-03T04:11:02.155Z,90.79
2022-08-03T04:13:38.455Z,90.69
2022-08-03T04:16:14.387Z,91.12
2022-08-03T04:18:50.983Z,90.44
2022-08-03T04:21:25.317Z,91.44
2022-08-03T04:24:01.440Z,92.10
2022-08-03T04:26:36.946Z,92.50
2022-08-03T04:29:11.643Z,93.22
2022-08-03T04:31:46.435Z,93.39
2022-08-03T04:34:19.019Z,94.53
2022-08-03T04:36:57.949Z,94.06
2022-08-03T04:39:32.741Z,94.07
2022-08-03T04:42:09.255Z,94.51
2022-08-03T04:44:44.535Z,94.96
2022-08-03T04:47:17.104Z,95.48
2022-08-03T04:49:49.866Z,95.36
2022-08-03T04:52:22.331Z,95.34
2022-08-03T04:54:55.376Z,94.37
2022-08-03T04:57:27.868Z,94.01
2022-08-03T05:00:03.142Z,94.26
2022-08-03T05:02:36.999Z,93.85
2022-08-03T05:05:11.258Z,94.03
2022-08-03T05:07:44.352Z,93.58
2022-08-03T05:10:17.896Z,93.20
2022-08-03T05:12:51.024Z,93.22
2022-08-03T05:15:23.439Z,93.35
2022-08-03T05:17:55.838Z,92.13
2022-08-03T05:20:28.233Z,92.10
2022-08-03T05:23:01.292Z,91.50
2022-08-03T05:25:34.363Z,91.11
2022-08-03T05:28:06.948Z,90.32
2022-08-03T05:30:39.408Z,89.49
2022-08-03T05:33:11.814Z,89.99
2022-08-03T05:36:00.955Z,88.45
2022-08-03T05:38:36.607Z,85.00
2022-08-03T05:41:23.734Z,83.36
2022-08-03T05:44:02.259Z,81.30
2022-08-03T05:46:34.699Z,79.52
2022-08-03T05:49:07.149Z,78.76
2022-08-03T05:51:39.614Z,77.70
2022-08-03T05:54:12.193Z,77.37
2022-08-03T05:56:45.801Z,77.59
2022-08-03T05:59:37.621Z,76.32
2022-08-03T06:02:11.094Z,76.17
2022-08-03T06:04:43.625Z,73.80
2022-08-03T06:07:16.053Z,73.69
2022-08-03T06:10:34.519Z,72.82
2022-08-03T06:12:41.720Z,72.82
2022-08-03T06:15:14.836Z,71.81
2022-08-03T06:17:47.851Z,70.61
2022-08-03T06:20:20.928Z,69.52
2022-08-03T06:23:00.840Z,69.23
2022-08-03T06:25:33.560Z,67.67
2022-08-03T06:28:09.474Z,65.32
2022-08-03T06:30:44.870Z,64.89
2022-08-03T06:33:17.332Z,64.38
2022-08-03T06:35:49.712Z,63.38
2022-08-03T06:38:22.535Z,63.59
2022-08-03T06:40:55.129Z,63.75
2022-08-03T06:43:28.281Z,62.76
2022-08-03T06:46:08.650Z,61.22
2022-08-03T06:48:41.050Z,60.27
2022-08-03T06:51:13.835Z,59.80
2022-08-03T06:53:46.247Z,58.37
2022-08-03T06:56:19.880Z,58.69
2022-08-03T06:58:53.007Z,59.74
2022-08-03T07:01:25.504Z,58.69
2022-08-03T07:03:58.190Z,57.97
2022-08-03T07:06:31.000Z,57.42
2022-08-03T07:09:03.736Z,57.42
2022-08-03T07:11:36.288Z,57.09
2022-08-03T07:14:09.460Z,57.96
2022-08-03T07:16:42.191Z,56.54
2022-08-03T07:19:14.670Z,56.22
2022-08-03T07:21:47.147Z,54.65
2022-08-03T07:24:19.580Z,54.40
2022-08-03T07:26:53.531Z,53.09
2022-08-03T07:29:26.762Z,52.48
2022-08-03T07:31:59.159Z,52.51
2022-08-03T07:34:31.634Z,51.75
2022-08-03T07:37:04.199Z,50.53
2022-08-03T07:39:36.665Z,50.39
2022-08-03T07:42:09.147Z,50.15
2022-08-03T07:44:42.223Z,50.89
2022-08-03T07:47:22.390Z,49.86
2022-08-03T07:49:55.889Z,49.42
2022-08-03T07:52:46.290Z,48.80
2022-08-03T07:55:19.680Z,46.88
2022-08-03T07:58:03.172Z,47.48
2022-08-03T08:00:36.528Z,46.97
2022-08-03T08:03:09.404Z,46.01
2022-08-03T08:05:42.143Z,46.08
2022-08-03T08:08:14.675Z,45.08
2022-08-03T08:10:58.561Z,43.84
2022-08-03T08:13:31.255Z,44.52
2022-08-03T08:16:04.789Z,43.84
2022-08-03T08:18:37.191Z,42.35
2022-08-03T08:21:09.558Z,43.32
2022-08-03T08:23:46.229Z,43.47
2022-08-03T08:26:27.409Z,43.55
2022-08-03T08:28:59.834Z,42.85
2022-08-03T08:31:33.637Z,42.92
2022-08-03T08:34:06.762Z,40.33
2022-08-03T08:36:39.151Z,42.36
2022-08-03T08:39:11.960Z,39.84
2022-08-03T08:41:53.300Z,41.02
2022-08-03T08:44:25.955Z,40.22
2022-08-03T08:47:03.122Z,40.74
2022-08-03T08:49:38.224Z,39.23
2022-08-03T08:52:25.464Z,40.11
2022-08-03T08:55:03.959Z,40.40
2022-08-03T08:57:43.059Z,40.33
2022-08-03T09:00:17.146Z,40.95
2022-08-03T09:02:50.415Z,40.34
2022-08-03T09:05:36.278Z,38.48
2022-08-03T09:08:15.879Z,37.58
2022-08-03T09:10:48.502Z,37.65
2022-08-03T09:13:21.024Z,37.54
2022-08-03T09:16:14.102Z,37.16
2022-08-03T09:18:49.424Z,37.42
2022-08-03T09:21:32.944Z,36.38
2022-08-03T09:24:13.008Z,34.86
2022-08-03T09:26:53.575Z,34.79
2022-08-03T09:29:26.521Z,34.09
2022-08-03T09:32:03.008Z,35.10
2022-08-03T09:34:36.479Z,36.29
2022-08-03T09:37:14.329Z,34.90
2022-08-03T09:39:47.272Z,36.14
2022-08-03T09:42:24.120Z,33.33
2022-08-03T09:44:57.448Z,34.10
2022-08-03T09:47:31.817Z,33.10
2022-08-03T09:50:07.211Z,32.17
2022-08-03T09:52:51.864Z,33.30
2022-08-03T09:56:34.728Z,33.55
2022-08-03T09:58:18.075Z,32.59
2022-08-03T10:00:58.548Z,35.30
2022-08-03T10:03:32.740Z,33.61
2022-08-03T10:06:17.007Z,33.93
2022-08-03T10:09:06.864Z,33.48
2022-08-03T10:11:41.974Z,33.70
2022-08-03T10:14:18.441Z,32.46
2022-08-03T10:16:51.327Z,32.57
2022-08-03T10:19:25.541Z,33.13
2022-08-03T10:22:06.909Z,34.00
2022-08-03T10:24:45.633Z,32.16
2022-08-03T10:27:19.184Z,32.86
2022-08-03T10:29:54.726Z,33.28
2022-08-03T10:32:30.953Z,34.00
2022-08-03T10:35:20.794Z,32.23
2022-08-03T10:37:58.839Z,31.85
2022-08-03T10:40:48.523Z,31.62
2022-08-03T10:43:27.241Z,31.36
2022-08-03T10:46:01.623Z,31.95
2022-08-03T10:48:35.968Z,31.61
2022-08-03T10:51:08.876Z,31.92
2022-08-03T10:53:46.213Z,31.78
2022-08-03T10:57:04.131Z,32.73
2022-08-03T11:00:05.883Z,33.05
2022-08-03T11:03:05.539Z,33.64
2022-08-03T11:05:40.648Z,32.46
2022-08-03T11:08:22.151Z,32.77
2022-08-03T11:10:57.990Z,32.63
2022-08-03T11:13:33.081Z,31.95
2022-08-03T11:16:21.834Z,31.95
2022-08-03T11:18:59.699Z,31.22
2022-08-03T11:21:54.443Z,31.27
2022-08-03T11:24:58.196Z,32.26
2022-08-03T11:27:32.869Z,32.33
2022-08-03T11:30:07.647Z,30.87
2022-08-03T11:32:59.647Z,32.35
2022-08-03T11:35:35.064Z,30.88
2022-08-03T11:38:09.668Z,31.00
2022-08-03T11:40:44.551Z,30.56
2022-08-03T11:43:45.972Z,30.64
2022-08-03T11:46:29.949Z,33.00
2022-08-03T11:49:09.960Z,30.71
2022-08-03T11:51:43.281Z,31.57
2022-08-03T11:54:19.829Z,33.39
2022-08-03T11:56:52.422Z,30.56
2022-08-03T11:59:33.279Z,31.66
2022-08-03T12:02:10.240Z,32.84
2022-08-03T12:04:52.037Z,32.13
2022-08-03T12:08:04.209Z,32.44
2022-08-03T12:10:19.226Z,32.60
2022-08-03T12:12:55.837Z,32.68
2022-08-03T12:15:33.295Z,33.47
2022-08-03T12:18:15.157Z,32.43
2022-08-03T12:20:49.504Z,34.58
2022-08-03T12:23:21.954Z,34.09
2022-08-03T12:26:02.539Z,32.25
2022-08-03T12:28:38.333Z,32.94
2022-08-03T12:31:13.071Z,34.08
2022-08-03T12:33:56.395Z,33.14
2022-08-03T12:36:30.510Z,33.79
2022-08-03T12:39:05.240Z,33.29
2022-08-03T12:41:39.148Z,33.54
2022-08-03T12:44:11.615Z,35.21
2022-08-03T12:46:47.950Z,32.93
2022-08-03T12:49:20.965Z,33.99
2022-08-03T12:51:57.831Z,33.78
2022-08-03T12:54:31.837Z,33.34
2022-08-03T12:57:05.866Z,34.81
2022-08-03T12:59:41.855Z,33.31
2022-08-03T13:02:24.522Z,34.76
2022-08-03T13:04:57.141Z,34.29
2022-08-03T13:07:40.467Z,33.94
2022-08-03T13:10:28.046Z,35.01
2022-08-03T13:13:02.939Z,35.51
2022-08-03T13:15:38.658Z,35.13
2022-08-03T13:18:21.011Z,35.23
2022-08-03T13:20:53.446Z,35.91
2022-08-03T13:23:25.987Z,37.55
2022-08-03T13:25:58.418Z,36.49
2022-08-03T13:28:30.821Z,36.68
2022-08-03T13:31:03.391Z,37.08
2022-08-03T13:33:36.422Z,37.96
2022-08-03T13:36:08.911Z,37.72
2022-08-03T13:38:41.344Z,37.11
2022-08-03T13:41:15.622Z,38.02
2022-08-03T13:43:50.027Z,38.33
2022-08-03T13:46:29.936Z,38.74
2022-08-03T13:49:02.961Z,38.82
2022-08-03T13:51:35.375Z,38.45
2022-08-03T13:54:08.134Z,38.30
2022-08-03T13:56:41.258Z,38.52
2022-08-03T13:59:13.628Z,38.82
2022-08-03T14:01:55.374Z,38.86
2022-08-03T14:04:28.909Z,38.40
2022-08-03T14:07:01.465Z,39.48
2022-08-03T14:09:33.848Z,40.16
2022-08-03T14:12:08.014Z,41.26
2022-08-03T14:14:41.231Z,40.77
2022-08-03T14:17:13.761Z,40.16
2022-08-03T14:19:53.311Z,39.96
2022-08-03T14:22:26.391Z,40.04
2022-08-03T14:24:58.871Z,40.91
2022-08-03T14:27:31.449Z,39.25
2022-08-03T14:30:04.531Z,39.45
2022-08-03T14:32:36.998Z,39.88
2022-08-03T14:35:10.200Z,39.86
2022-08-03T14:37:42.661Z,40.26
2022-08-03T14:40:15.302Z,39.89
2022-08-03T14:42:47.796Z,40.22
2022-08-03T14:45:20.747Z,41.36
2022-08-03T14:50:28.515Z,41.95
2022-08-03T14:50:51.059Z,40.98
2022-08-03T14:53:24.344Z,43.71
2022-08-03T14:55:57.125Z,44.60
2022-08-03T14:58:29.598Z,43.61
2022-08-03T15:01:02.122Z,43.67
2022-08-03T15:03:34.692Z,42.65
2022-08-03T15:06:07.786Z,43.55
2022-08-03T15:08:40.231Z,42.80
2022-08-03T15:11:12.616Z,43.65
2022-08-03T15:13:45.046Z,44.06
2022-08-03T15:16:17.564Z,44.97
2022-08-03T15:18:50.003Z,45.69
2022-08-03T15:21:46.699Z,45.63
2022-08-03T15:24:15.538Z,45.42
2022-08-03T15:26:47.933Z,45.18
2022-08-03T15:30:05.629Z,45.60
2022-08-03T15:32:12.740Z,45.84
2022-08-03T15:34:50.336Z,46.38
2022-08-03T15:37:24.887Z,46.90
2022-08-03T15:39:59.578Z,46.77
2022-08-03T15:42:34.056Z,47.03
2022-08-03T15:45:07.372Z,46.82
2022-08-03T15:47:39.746Z,46.08
2022-08-03T15:50:12.215Z,45.78
2022-08-03T15:52:45.290Z,46.59
2022-08-03T15:55:17.786Z,46.31
2022-08-03T15:59:03.435Z,47.00
2022-08-03T16:00:43.014Z,46.83
2022-08-03T16:03:15.412Z,47.46
2022-08-03T16:05:47.831Z,48.25
2022-08-03T16:08:20.982Z,47.42
2022-08-03T16:10:53.467Z,47.57
2022-08-03T16:14:12.930Z,46.77
2022-08-03T16:16:20.202Z,45.46
2022-08-03T16:18:52.813Z,43.92
2022-08-03T16:21:25.229Z,43.41
2022-08-03T16:24:03.036Z,43.13
2022-08-03T16:26:39.781Z,42.42
2022-08-03T16:29:22.435Z,41.92
2022-08-03T16:31:56.291Z,42.69
2022-08-03T16:34:28.720Z,42.34
2022-08-03T16:37:16.487Z,43.32
2022-08-03T16:39:55.138Z,43.35
2022-08-03T16:42:27.573Z,42.03
2022-08-03T16:44:59.947Z,42.67
2022-08-03T16:47:32.611Z,42.66
2022-08-03T16:50:13.989Z,42.79
2022-08-03T16:52:49.851Z,43.34
2022-08-03T16:55:49.085Z,42.58
2022-08-03T16:58:17.290Z,42.28
2022-08-03T17:00:50.991Z,42.36
2022-08-03T17:03:24.209Z,41.89
2022-08-03T17:05:59.503Z,41.82
2022-08-03T17:08:33.733Z,42.24
2022-08-03T17:11:07.710Z,42.17
2022-08-03T17:13:40.696Z,41.91
2022-08-03T17:16:18.691Z,42.62
2022-08-03T17:18:57.827Z,41.93
2022-08-03T17:21:37.299Z,41.96
2022-08-03T17:24:20.066Z,42.05
2022-08-03T17:26:54.898Z,41.76
2022-08-03T17:29:30.426Z,41.96
2022-08-03T17:32:09.291Z,42.07
2022-08-03T17:34:44.410Z,42.57
2022-08-03T17:37:50.217Z,42.50
2022-08-03T17:40:17.436Z,43.07
2022-08-03T17:42:51.116Z,42.78
2022-08-03T17:45:23.547Z,42.71
2022-08-03T17:48:18.563Z,42.89
2022-08-03T17:50:55.258Z,42.54
2022-08-03T17:53:29.955Z,43.81
2022-08-03T17:56:42.584Z,43.53
2022-08-03T17:59:15.728Z,43.10
2022-08-03T18:02:29.523Z,44.37
2022-08-03T18:05:15.960Z,44.88
2022-08-03T18:07:59.300Z,45.16
2022-08-03T18:10:35.715Z,45.81
2022-08-03T18:13:10.503Z,47.20
2022-08-03T18:16:04.503Z,47.33
2022-08-03T18:18:40.925Z,47.83
2022-08-03T18:21:17.268Z,47.81
2022-08-03T18:23:51.483Z,48.93
2022-08-03T18:26:24.195Z,49.61
2022-08-03T18:28:58.016Z,49.96
2022-08-03T18:31:59.994Z,49.40
2022-08-03T18:34:32.590Z,49.42
2022-08-03T18:37:08.102Z,49.02
2022-08-03T18:39:49.864Z,48.97
2022-08-03T18:42:26.313Z,48.85
2022-08-03T18:45:14.684Z,49.88
2022-08-03T18:48:02.069Z,50.43
2022-08-03T18:50:39.746Z,51.09
2022-08-03T18:54:02.824Z,48.32
2022-08-03T18:56:26.471Z,47.68
2022-08-03T18:59:04.132Z,47.19
2022-08-03T19:01:59.875Z,48.09
2022-08-03T19:04:38.567Z,48.83
2022-08-03T19:07:22.141Z,49.94
2022-08-03T19:10:03.562Z,50.62
2022-08-03T19:12:42.106Z,51.37
2022-08-03T19:15:21.270Z,50.89
2022-08-03T19:18:16.324Z,52.20
2022-08-03T19:20:50.800Z,52.34
2022-08-03T19:23:25.974Z,52.21
2022-08-03T19:26:03.917Z,52.50
2022-08-03T19:28:36.706Z,53.38
2022-08-03T19:31:11.231Z,54.02
2022-08-03T19:33:55.824Z,55.25
2022-08-03T19:36:30.674Z,55.53
2022-08-03T19:39:08.283Z,56.22
2022-08-03T19:41:45.637Z,55.93
2022-08-03T19:44:30.314Z,56.70
2022-08-03T19:47:08.533Z,56.47
2022-08-03T19:50:06.323Z,56.86
2022-08-03T19:52:39.343Z,57.30
2022-08-03T19:55:14.278Z,57.30
2022-08-03T19:57:49.086Z,57.29
2022-08-03T20:00:26.185Z,57.92
2022-08-03T20:02:59.898Z,58.23
2022-08-03T20:05:45.061Z,58.34
2022-08-03T20:08:26.763Z,58.75
2022-08-03T20:10:59.798Z,58.51
2022-08-03T20:13:39.131Z,59.23
2022-08-03T20:16:12.102Z,59.94
2022-08-03T20:18:44.661Z,60.51
2022-08-03T20:21:18.213Z,60.75
2022-08-03T20:24:02.808Z,61.40
2022-08-03T20:26:53.450Z,61.48
2022-08-03T20:30:05.429Z,61.64
2022-08-03T20:32:24.882Z,61.72
2022-08-03T20:34:57.462Z,61.49
2022-08-03T20:37:31.135Z,61.16
2022-08-03T20:40:06.211Z,61.41
2022-08-03T20:42:38.700Z,61.63
2022-08-03T20:45:15.135Z,62.88
2022-08-03T20:48:04.643Z,63.74
2022-08-03T20:50:38.289Z,63.77
2022-08-03T20:53:12.091Z,65.12
2022-08-03T20:55:47.518Z,65.58
2022-08-03T20:58:35.307Z,66.42
2022-08-03T21:01:08.750Z,66.02
2022-08-03T21:03:52.377Z,65.98
2022-08-03T21:06:34.108Z,66.24
2022-08-03T21:09:06.593Z,67.62
2022-08-03T21:11:43.323Z,67.83
2022-08-03T21:14:22.383Z,68.19
2022-08-03T21:16:57.229Z,68.51
2022-08-03T21:19:32.079Z,68.74
2022-08-03T21:22:07.856Z,68.97
2022-08-03T21:24:43.328Z,69.67
2022-08-03T21:27:16.434Z,69.98
2022-08-03T21:29:53.162Z,70.18
2022-08-03T21:32:33.033Z,69.67
2022-08-03T21:35:09.174Z,70.35
2022-08-03T21:37:43.475Z,70.00
2022-08-03T21:40:16.760Z,70.19
2022-08-03T21:42:49.825Z,69.97
2022-08-03T21:45:22.263Z,70.65
2022-08-03T21:47:55.900Z,70.50
2022-08-03T21:50:29.324Z,70.92
2022-08-03T21:53:02.973Z,70.45
2022-08-03T21:55:38.142Z,71.06
2022-08-03T21:58:15.704Z,70.76
2022-08-03T22:00:48.383Z,71.39
2022-08-03T22:03:24.071Z,71.09
2022-08-03T22:06:04.790Z,71.13
2022-08-03T22:08:38.291Z,71.61
2022-08-03T22:11:11.116Z,71.68
2022-08-03T22:13:44.784Z,72.09
2022-08-03T22:16:17.538Z,72.23
2022-08-03T22:18:49.930Z,72.36
2022-08-03T22:21:36.361Z,72.09
2022-08-03T22:24:09.338Z,72.30
2022-08-03T22:27:03.358Z,72.94
2022-08-03T22:29:39.502Z,73.21
2022-08-03T22:32:12.055Z,73.56
2022-08-03T22:34:46.187Z,73.46
2022-08-03T22:37:20.554Z,73.85
2022-08-03T22:39:55.611Z,74.34
2022-08-03T22:42:29.023Z,74.43
2022-08-03T22:45:04.344Z,74.71
2022-08-03T22:47:39.965Z,74.68
2022-08-03T22:50:33.259Z,74.95
2022-08-03T22:53:07.203Z,74.64
2022-08-03T22:55:39.959Z,74.84
2022-08-03T22:58:14.798Z,75.16
2022-08-03T23:00:53.687Z,75.49
2022-08-03T23:03:58.504Z,75.71
2022-08-03T23:06:26.758Z,76.00
2022-08-03T23:08:59.970Z,76.41
2022-08-03T23:11:36.555Z,76.94
2022-08-03T23:14:12.301Z,76.78
2022-08-03T23:16:50.266Z,77.35
2022-08-03T23:19:26.263Z,77.04
2022-08-03T23:22:03.478Z,77.25
2022-08-03T23:24:37.354Z,77.32
2022-08-03T23:27:09.830Z,77.54
2022-08-03T23:29:43.546Z,77.52
2022-08-03T23:32:20.429Z,78.07
2022-08-03T23:35:14.306Z,77.88
2022-08-03T23:38:21.495Z,78.04
2022-08-03T23:40:41.526Z,78.16
2022-08-03T23:43:18.882Z,78.27
2022-08-03T23:46:08.829Z,78.27
2022-08-03T23:48:41.885Z,78.55
2022-08-03T23:51:23.230Z,78.58
2022-08-03T23:54:03.198Z,78.54
2022-08-03T23:56:57.323Z,78.54
2022-08-03T23:59:37.455Z,78.71
